createdAt,value
2023-01-19T00:00:45.451Z,99003.63
2023-01-19T00:03:16.144Z,99007.50
2023-01-19T00:05:43.959Z,99010.94
2023-01-19T00:08:17.497Z,99014.66
2023-01-19T00:10:46.356Z,99006.84
2023-01-19T00:13:13.563Z,99006.16
2023-01-19T00:15:40.116Z,99011.84
2023-01-19T00:18:07.600Z,99003.47
2023-01-19T00:20:38.053Z,99011.53
2023-01-19T00:23:04.843Z,99015.34
2023-01-19T00:25:31.691Z,99016.56
2023-01-19T00:28:00.510Z,99019.94
2023-01-19T00:30:28.047Z,99025.00
2023-01-19T00:32:54.552Z,99036.59
2023-01-19T00:35:21.124Z,99034.84
2023-01-19T00:37:47.662Z,99033.50
2023-01-19T00:40:14.315Z,99028.66
2023-01-19T00:42:44.189Z,99033.09
2023-01-19T00:45:13.583Z,99032.38
2023-01-19T00:47:40.299Z,99029.56
2023-01-19T00:50:11.861Z,99049.59
2023-01-19T00:52:39.867Z,99055.75
2023-01-19T00:55:09.174Z,99060.94
2023-01-19T00:57:35.800Z,99060.84
2023-01-19T01:00:06.435Z,99061.06
2023-01-19T01:02:34.164Z,99061.75
2023-01-19T01:05:02.800Z,99063.03
2023-01-19T01:07:30.405Z,99062.88
2023-01-19T01:09:57.455Z,99060.47
2023-01-19T01:12:24.612Z,99055.72
2023-01-19T01:14:51.187Z,99058.75
2023-01-19T01:17:25.103Z,99059.41
2023-01-19T01:19:52.481Z,99070.78
2023-01-19T01:22:19.611Z,99071.91
2023-01-19T01:24:46.226Z,99078.28
2023-01-19T01:27:13.297Z,99085.09
2023-01-19T01:29:41.238Z,99079.16
2023-01-19T01:32:08.479Z,99073.69
2023-01-19T01:34:35.330Z,99079.25
2023-01-19T01:37:02.890Z,99074.75
2023-01-19T01:39:29.567Z,99070.63
2023-01-19T01:41:56.091Z,99071.72
2023-01-19T01:44:52.088Z,99075.84
2023-01-19T01:47:39.684Z,99070.84
2023-01-19T01:50:17.192Z,99077.34
2023-01-19T01:53:06.503Z,99077.84
2023-01-19T01:55:38.053Z,99085.78
2023-01-19T01:58:08.729Z,99088.59
2023-01-19T02:00:54.304Z,99091.47
2023-01-19T02:03:23.428Z,99085.00
2023-01-19T02:05:50.848Z,99091.50
2023-01-19T02:08:46.927Z,99092.19
2023-01-19T02:11:32.344Z,99096.16
2023-01-19T02:13:59.009Z,99088.06
2023-01-19T02:16:25.581Z,99097.03
2023-01-19T02:18:52.452Z,99094.25
2023-01-19T02:21:57.039Z,99096.31
2023-01-19T02:24:24.401Z,99095.22
2023-01-19T02:26:51.998Z,99097.09
2023-01-19T02:29:20.947Z,99102.13
2023-01-19T02:31:47.776Z,99110.34
2023-01-19T02:34:19.944Z,99112.81
2023-01-19T02:36:56.160Z,99112.47
2023-01-19T02:39:26.847Z,99114.03
2023-01-19T02:41:59.740Z,99110.56
2023-01-19T02:44:27.791Z,99116.47
2023-01-19T02:46:54.833Z,99108.63
2023-01-19T02:49:21.391Z,99111.22
2023-01-19T02:51:48.482Z,99106.06
2023-01-19T02:54:27.164Z,99107.69
2023-01-19T02:56:56.657Z,99111.66
2023-01-19T02:59:26.288Z,99112.34
2023-01-19T03:02:17.722Z,99115.97
2023-01-19T03:05:22.965Z,99121.81
2023-01-19T03:08:08.011Z,99120.22
2023-01-19T03:10:53.173Z,99126.06
2023-01-19T03:13:47.298Z,99118.38
2023-01-19T03:16:25.580Z,99114.88
2023-01-19T03:19:03.009Z,99121.84
2023-01-19T03:21:33.966Z,99129.19
2023-01-19T03:24:04.657Z,99134.19
2023-01-19T03:26:34.938Z,99136.03
2023-01-19T03:29:04.039Z,99146.19
2023-01-19T03:31:33.062Z,99141.78
2023-01-19T03:34:07.860Z,99148.38
2023-01-19T03:36:40.482Z,99152.00
2023-01-19T03:39:09.594Z,99160.13
2023-01-19T03:41:38.358Z,99156.41
2023-01-19T03:44:06.239Z,99150.47
2023-01-19T03:46:33.911Z,99146.16
2023-01-19T03:49:00.576Z,99146.97
2023-01-19T03:51:27.401Z,99153.50
2023-01-19T03:53:53.927Z,99155.34
2023-01-19T03:56:25.257Z,99150.28
2023-01-19T03:58:52.440Z,99151.09
2023-01-19T04:01:23.406Z,99149.88
2023-01-19T04:03:50.811Z,99149.34
2023-01-19T04:06:18.025Z,99151.75
2023-01-19T04:08:44.606Z,99159.13
2023-01-19T04:11:11.594Z,99159.81
2023-01-19T04:13:38.133Z,99168.56
2023-01-19T04:16:05.568Z,99168.06
2023-01-19T04:18:34.932Z,99166.72
2023-01-19T04:21:06.650Z,99148.16
2023-01-19T04:23:33.801Z,99156.78
2023-01-19T04:26:03.174Z,99157.66
2023-01-19T04:28:30.648Z,99151.72
2023-01-19T04:30:57.231Z,99143.91
2023-01-19T04:33:24.512Z,99151.25
2023-01-19T04:35:54.419Z,99155.63
2023-01-19T04:38:21.947Z,99161.31
2023-01-19T04:40:53.429Z,99151.34
2023-01-19T04:43:21.206Z,99155.81
2023-01-19T04:45:49.078Z,99167.56
2023-01-19T04:48:18.370Z,99169.78
2023-01-19T04:50:44.931Z,99166.88
2023-01-19T04:53:13.637Z,99171.34
2023-01-19T04:55:40.503Z,99164.53
2023-01-19T04:58:07.091Z,99165.56
2023-01-19T05:00:33.831Z,99162.25
2023-01-19T05:03:01.638Z,99161.34
2023-01-19T05:05:28.661Z,99159.09
2023-01-19T05:07:55.353Z,99159.91
2023-01-19T05:10:22.149Z,99157.06
2023-01-19T05:12:48.834Z,99159.44
2023-01-19T05:15:15.401Z,99155.03
2023-01-19T05:17:42.087Z,99151.47
2023-01-19T05:20:11.105Z,99155.66
2023-01-19T05:22:39.190Z,99160.06
2023-01-19T05:25:08.781Z,99155.53
2023-01-19T05:27:36.445Z,99155.56
2023-01-19T05:30:05.022Z,99151.88
2023-01-19T05:32:31.612Z,99145.78
2023-01-19T05:34:58.177Z,99150.81
2023-01-19T05:37:24.769Z,99141.94
2023-01-19T05:39:51.466Z,99139.66
2023-01-19T05:42:18.007Z,99143.91
2023-01-19T05:44:44.608Z,99134.63
2023-01-19T05:47:11.788Z,99134.06
2023-01-19T05:49:38.428Z,99148.28
2023-01-19T05:52:04.957Z,99138.44
2023-01-19T05:54:31.545Z,99138.34
2023-01-19T05:56:58.245Z,99145.84
2023-01-19T05:59:24.806Z,99136.09
2023-01-19T06:01:52.160Z,99142.03
2023-01-19T06:04:19.965Z,99152.63
2023-01-19T06:06:50.329Z,99152.56
2023-01-19T06:09:17.573Z,99154.56
2023-01-19T06:11:45.245Z,99150.63
2023-01-19T06:14:12.012Z,99165.00
2023-01-19T06:16:38.953Z,99160.97
2023-01-19T06:19:05.937Z,99168.91
2023-01-19T06:21:33.221Z,99167.34
2023-01-19T06:23:59.897Z,99176.41
2023-01-19T06:26:26.436Z,99184.09
2023-01-19T06:28:52.988Z,99189.84
2023-01-19T06:31:19.576Z,99183.88
2023-01-19T06:33:46.164Z,99196.75
2023-01-19T06:36:12.845Z,99193.00
2023-01-19T06:38:39.391Z,99194.47
2023-01-19T06:41:05.979Z,99201.34
2023-01-19T06:43:32.755Z,99205.88
2023-01-19T06:46:00.679Z,99211.22
2023-01-19T06:48:27.653Z,99203.59
2023-01-19T06:50:54.216Z,99209.75
2023-01-19T06:53:22.273Z,99204.53
2023-01-19T06:55:48.974Z,99206.81
2023-01-19T06:58:15.771Z,99215.97
2023-01-19T07:00:43.081Z,99221.13
2023-01-19T07:03:16.106Z,99214.97
2023-01-19T07:05:42.731Z,99217.56
2023-01-19T07:08:09.315Z,99221.97
2023-01-19T07:11:21.524Z,99221.13
2023-01-19T07:13:22.830Z,99228.59
2023-01-19T07:15:49.434Z,99229.38
2023-01-19T07:18:15.956Z,99232.94
2023-01-19T07:20:44.344Z,99232.41
2023-01-19T07:23:10.865Z,99232.84
2023-01-19T07:25:38.284Z,99233.97
2023-01-19T07:28:04.883Z,99237.38
2023-01-19T07:30:31.437Z,99233.19
2023-01-19T07:32:59.076Z,99236.09
2023-01-19T07:35:25.914Z,99237.91
2023-01-19T07:37:52.580Z,99235.31
2023-01-19T07:40:19.304Z,99244.91
2023-01-19T07:42:48.771Z,99246.69
2023-01-19T07:45:23.234Z,99251.88
2023-01-19T07:47:50.051Z,99257.69
2023-01-19T07:50:21.230Z,99251.16
2023-01-19T07:52:50.640Z,99243.22
2023-01-19T07:55:17.575Z,99257.28
2023-01-19T07:57:44.262Z,99254.47
2023-01-19T08:00:11.599Z,99254.56
2023-01-19T08:02:38.350Z,99252.09
2023-01-19T08:05:05.210Z,99255.22
2023-01-19T08:07:33.480Z,99257.78
2023-01-19T08:10:00.004Z,99259.09
2023-01-19T08:12:26.587Z,99255.25
2023-01-19T08:14:53.127Z,99256.91
2023-01-19T08:17:19.709Z,99260.84
2023-01-19T08:19:46.242Z,99266.06
2023-01-19T08:22:12.742Z,99264.22
2023-01-19T08:24:39.254Z,99266.81
2023-01-19T08:27:06.120Z,99264.25
2023-01-19T08:29:33.669Z,99267.63
2023-01-19T08:32:02.232Z,99263.22
2023-01-19T08:34:32.686Z,99270.69
2023-01-19T08:36:59.496Z,99273.03
2023-01-19T08:39:27.363Z,99277.75
2023-01-19T08:41:54.248Z,99269.03
2023-01-19T08:44:20.871Z,99280.13
2023-01-19T08:46:47.883Z,99277.19
2023-01-19T08:49:15.807Z,99283.59
2023-01-19T08:51:42.365Z,99285.06
2023-01-19T08:54:09.867Z,99278.41
2023-01-19T08:56:36.816Z,99274.91
2023-01-19T08:59:09.906Z,99279.13
2023-01-19T09:01:37.651Z,99274.22
2023-01-19T09:04:04.480Z,99279.19
2023-01-19T09:06:31.031Z,99276.53
2023-01-19T09:08:57.764Z,99267.56
2023-01-19T09:11:24.489Z,99259.59
2023-01-19T09:13:51.032Z,99266.13
2023-01-19T09:16:17.694Z,99271.03
2023-01-19T09:18:46.045Z,99277.03
2023-01-19T09:21:13.879Z,99272.91
2023-01-19T09:23:40.547Z,99271.41
2023-01-19T09:26:07.406Z,99278.94
2023-01-19T09:28:34.078Z,99272.94
2023-01-19T09:31:05.519Z,99276.06
2023-01-19T09:33:32.132Z,99279.25
2023-01-19T09:35:58.978Z,99277.72
2023-01-19T09:38:27.008Z,99275.50
2023-01-19T09:40:56.676Z,99270.16
2023-01-19T09:43:39.421Z,99269.78
2023-01-19T09:46:21.119Z,99262.88
2023-01-19T09:48:51.809Z,99263.50
2023-01-19T09:51:28.168Z,99265.97
2023-01-19T09:54:17.860Z,99257.00
2023-01-19T09:56:46.208Z,99263.00
2023-01-19T09:59:21.943Z,99262.75
2023-01-19T10:02:18.846Z,99259.03
2023-01-19T10:05:02.565Z,99255.28
2023-01-19T10:07:54.542Z,99262.31
2023-01-19T10:10:30.854Z,99256.31
2023-01-19T10:13:09.748Z,99255.50
2023-01-19T10:15:36.390Z,99257.16
2023-01-19T10:18:20.030Z,99252.63
2023-01-19T10:20:56.452Z,99252.41
2023-01-19T10:23:38.540Z,99248.50
2023-01-19T10:26:26.357Z,99249.50
2023-01-19T10:28:57.564Z,99245.91
2023-01-19T10:31:25.106Z,99242.13
2023-01-19T10:33:52.775Z,99243.66
2023-01-19T10:36:29.774Z,99244.00
2023-01-19T10:38:56.328Z,99239.38
2023-01-19T10:41:31.707Z,99238.09
2023-01-19T10:44:04.336Z,99239.97
2023-01-19T10:46:42.145Z,99230.41
2023-01-19T10:49:28.992Z,99238.22
2023-01-19T10:51:58.166Z,99230.75
2023-01-19T10:54:27.486Z,99236.19
2023-01-19T10:57:21.581Z,99230.31
2023-01-19T10:59:50.869Z,99235.34
2023-01-19T11:02:29.456Z,99233.03
2023-01-19T11:05:23.126Z,99234.81
2023-01-19T11:07:49.682Z,99236.25
2023-01-19T11:10:16.324Z,99235.59
2023-01-19T11:12:45.864Z,99226.03
2023-01-19T11:15:22.907Z,99236.25
2023-01-19T11:17:50.486Z,99231.78
2023-01-19T11:20:30.493Z,99232.78
2023-01-19T11:23:18.457Z,99220.34
2023-01-19T11:25:50.249Z,99231.56
2023-01-19T11:28:40.003Z,99227.91
2023-01-19T11:31:15.873Z,99224.28
2023-01-19T11:33:49.778Z,99227.72
2023-01-19T11:36:24.586Z,99230.53
2023-01-19T11:38:53.796Z,99229.88
2023-01-19T11:41:33.125Z,99231.00
2023-01-19T11:44:21.588Z,99243.28
2023-01-19T11:46:51.996Z,99232.00
2023-01-19T11:49:40.458Z,99230.25
2023-01-19T11:52:16.275Z,99232.66
2023-01-19T11:54:51.852Z,99236.50
2023-01-19T11:57:18.449Z,99234.00
2023-01-19T11:59:45.071Z,99237.88
2023-01-19T12:02:53.019Z,99234.31
2023-01-19T12:05:21.561Z,99234.56
2023-01-19T12:07:50.959Z,99233.25
2023-01-19T12:10:31.550Z,99250.38
2023-01-19T12:12:59.212Z,99234.69
2023-01-19T12:16:08.712Z,99228.09
2023-01-19T12:18:50.126Z,99218.19
2023-01-19T12:21:19.270Z,99208.59
2023-01-19T12:24:07.641Z,99220.22
2023-01-19T12:26:40.873Z,99225.47
2023-01-19T12:29:17.779Z,99229.69
2023-01-19T12:31:44.542Z,99230.69
2023-01-19T12:34:27.241Z,99228.44
2023-01-19T12:36:58.060Z,99224.19
2023-01-19T12:39:25.946Z,99223.34
2023-01-19T12:42:18.125Z,99222.06
2023-01-19T12:44:47.188Z,99225.66
2023-01-19T12:47:13.655Z,99219.59
2023-01-19T12:49:46.431Z,99221.44
2023-01-19T12:52:26.841Z,99220.09
2023-01-19T12:55:05.455Z,99212.66
2023-01-19T12:57:48.108Z,99207.44
2023-01-19T13:00:23.573Z,99217.22
2023-01-19T13:02:55.717Z,99218.84
2023-01-19T13:05:24.493Z,99217.16
2023-01-19T13:08:03.354Z,99217.16
2023-01-19T13:11:09.612Z,99208.13
2023-01-19T13:13:46.279Z,99215.16
2023-01-19T13:16:20.639Z,99200.13
2023-01-19T13:18:58.593Z,99206.13
2023-01-19T13:21:33.301Z,99206.00
2023-01-19T13:24:05.820Z,99205.00
2023-01-19T13:26:35.247Z,99198.94
2023-01-19T13:29:16.470Z,99198.78
2023-01-19T13:31:49.052Z,99197.84
2023-01-19T13:34:19.832Z,99193.41
2023-01-19T13:36:51.295Z,99197.22
2023-01-19T13:39:28.428Z,99197.06
2023-01-19T13:41:58.229Z,99201.31
2023-01-19T13:44:29.827Z,99205.00
2023-01-19T13:46:59.357Z,99194.59
2023-01-19T13:49:44.823Z,99198.66
2023-01-19T13:52:16.994Z,99200.91
2023-01-19T13:54:53.337Z,99192.06
2023-01-19T13:57:31.623Z,99200.38
2023-01-19T14:00:21.623Z,99200.84
2023-01-19T14:02:59.272Z,99207.53
2023-01-19T14:05:38.045Z,99202.41
2023-01-19T14:08:11.415Z,99206.88
2023-01-19T14:10:40.909Z,99212.94
2023-01-19T14:13:16.979Z,99209.59
2023-01-19T14:15:45.200Z,99216.00
2023-01-19T14:18:17.989Z,99209.72
2023-01-19T14:21:11.831Z,99215.59
2023-01-19T14:23:43.416Z,99220.91
2023-01-19T14:26:46.913Z,99222.75
2023-01-19T14:29:18.017Z,99226.19
2023-01-19T14:31:47.057Z,99228.25
2023-01-19T14:34:35.178Z,99229.66
2023-01-19T14:37:04.172Z,99228.31
2023-01-19T14:39:34.651Z,99225.53
2023-01-19T14:42:04.054Z,99217.38
2023-01-19T14:44:40.488Z,99220.09
2023-01-19T14:47:38.919Z,99221.16
2023-01-19T14:50:17.808Z,99226.50
2023-01-19T14:53:00.132Z,99227.84
2023-01-19T14:55:43.571Z,99230.25
2023-01-19T14:58:12.348Z,99230.72
2023-01-19T15:00:40.001Z,99233.97
2023-01-19T15:03:06.942Z,99230.44
2023-01-19T15:05:33.789Z,99230.44
2023-01-19T15:08:02.945Z,99233.97
2023-01-19T15:10:45.310Z,99238.84
2023-01-19T15:13:20.531Z,99243.63
2023-01-19T15:15:47.198Z,99243.28
2023-01-19T15:18:21.016Z,99245.63
2023-01-19T15:20:47.598Z,99245.44
2023-01-19T15:23:14.140Z,99235.78
2023-01-19T15:25:40.836Z,99257.19
2023-01-19T15:28:16.804Z,99258.16
2023-01-19T15:30:43.842Z,99255.66
2023-01-19T15:33:21.475Z,99257.25
2023-01-19T15:35:48.377Z,99263.66
2023-01-19T15:38:15.229Z,99275.84
2023-01-19T15:40:41.799Z,99268.56
2023-01-19T15:43:11.443Z,99277.66
2023-01-19T15:45:41.744Z,99276.25
2023-01-19T15:48:11.194Z,99275.50
2023-01-19T15:50:40.477Z,99285.38
2023-01-19T15:53:11.963Z,99282.03
2023-01-19T15:55:38.522Z,99283.41
2023-01-19T15:58:05.330Z,99284.09
2023-01-19T16:00:33.652Z,99280.25
2023-01-19T16:03:02.045Z,99281.84
2023-01-19T16:05:41.981Z,99286.44
2023-01-19T16:08:10.379Z,99286.47
2023-01-19T16:10:38.979Z,99288.19
2023-01-19T16:13:09.368Z,99289.81
2023-01-19T16:15:37.338Z,99295.63
2023-01-19T16:18:05.362Z,99298.19
2023-01-19T16:20:32.230Z,99308.06
2023-01-19T16:23:13.835Z,99302.16
2023-01-19T16:25:41.488Z,99303.94
2023-01-19T16:28:08.451Z,99298.69
2023-01-19T16:30:35.367Z,99298.47
2023-01-19T16:33:02.088Z,99304.50
2023-01-19T16:35:28.668Z,99313.59
2023-01-19T16:37:55.267Z,99315.50
2023-01-19T16:40:21.961Z,99314.94
2023-01-19T16:42:48.647Z,99314.09
2023-01-19T16:45:15.261Z,99324.50
2023-01-19T16:47:41.962Z,99324.28
2023-01-19T16:50:11.705Z,99324.28
2023-01-19T16:52:38.678Z,99325.00
2023-01-19T16:55:09.344Z,99330.47
2023-01-19T16:57:38.809Z,99337.97
2023-01-19T17:00:09.348Z,99341.34
2023-01-19T17:02:36.349Z,99332.16
2023-01-19T17:05:02.957Z,99334.00
2023-01-19T17:07:29.517Z,99337.19
2023-01-19T17:09:56.214Z,99330.88
2023-01-19T17:12:23.130Z,99337.88
2023-01-19T17:14:49.723Z,99342.38
2023-01-19T17:17:16.323Z,99334.47
2023-01-19T17:19:45.040Z,99355.75
2023-01-19T17:22:12.905Z,99349.28
2023-01-19T17:24:42.346Z,99354.88
2023-01-19T17:27:10.194Z,99356.47
2023-01-19T17:29:36.951Z,99352.13
2023-01-19T17:32:04.006Z,99345.97
2023-01-19T17:34:30.566Z,99354.22
2023-01-19T17:37:02.962Z,99345.78
2023-01-19T17:39:29.990Z,99359.66
2023-01-19T17:41:56.622Z,99354.28
2023-01-19T17:44:23.466Z,99361.56
2023-01-19T17:46:50.066Z,99370.34
2023-01-19T17:49:16.632Z,99367.59
2023-01-19T17:51:43.229Z,99364.53
2023-01-19T17:54:10.890Z,99369.28
2023-01-19T17:56:38.611Z,99372.00
2023-01-19T17:59:07.662Z,99373.63
2023-01-19T18:01:38.149Z,99371.13
2023-01-19T18:04:05.316Z,99373.19
2023-01-19T18:06:31.908Z,99365.16
2023-01-19T18:08:59.343Z,99380.03
2023-01-19T18:11:27.070Z,99369.09
2023-01-19T18:13:53.760Z,99366.72
2023-01-19T18:16:25.886Z,99368.41
2023-01-19T18:18:53.924Z,99368.19
2023-01-19T18:21:21.882Z,99368.16
2023-01-19T18:23:50.183Z,99363.28
2023-01-19T18:26:19.268Z,99363.13
2023-01-19T18:28:46.618Z,99357.78
2023-01-19T18:31:15.644Z,99357.88
2023-01-19T18:33:42.551Z,99369.44
2023-01-19T18:36:10.124Z,99366.84
2023-01-19T18:38:37.963Z,99371.63
2023-01-19T18:41:11.250Z,99374.06
2023-01-19T18:43:38.434Z,99367.09
2023-01-19T18:46:05.708Z,99365.88
2023-01-19T18:48:32.548Z,99367.50
2023-01-19T18:51:03.323Z,99373.63
2023-01-19T18:53:31.502Z,99374.41
2023-01-19T18:56:01.847Z,99381.97
2023-01-19T18:58:29.946Z,99385.63
2023-01-19T19:00:57.156Z,99394.75
2023-01-19T19:03:24.162Z,99391.03
2023-01-19T19:05:50.801Z,99395.91
2023-01-19T19:08:17.481Z,99391.41
2023-01-19T19:10:44.475Z,99394.75
2023-01-19T19:13:15.869Z,99394.81
2023-01-19T19:15:44.341Z,99401.91
2023-01-19T19:18:14.079Z,99399.38
2023-01-19T19:20:44.348Z,99402.19
2023-01-19T19:23:11.760Z,99405.78
2023-01-19T19:25:38.554Z,99401.47
2023-01-19T19:28:05.252Z,99400.25
2023-01-19T19:30:34.313Z,99397.56
2023-01-19T19:33:01.110Z,99400.97
2023-01-19T19:35:27.804Z,99401.84
2023-01-19T19:37:57.543Z,99404.28
2023-01-19T19:40:28.489Z,99408.94
2023-01-19T19:42:57.662Z,99408.94
2023-01-19T19:45:25.253Z,99404.44
2023-01-19T19:47:51.771Z,99414.97
2023-01-19T19:50:18.478Z,99418.63
2023-01-19T19:52:45.047Z,99417.81
2023-01-19T19:55:12.710Z,99414.16
2023-01-19T19:57:39.386Z,99420.16
2023-01-19T20:00:06.697Z,99416.78
2023-01-19T20:02:33.387Z,99428.06
2023-01-19T20:04:59.985Z,99427.97
2023-01-19T20:07:26.690Z,99431.03
2023-01-19T20:09:55.056Z,99427.00
2023-01-19T20:12:21.908Z,99435.97
2023-01-19T20:14:48.467Z,99427.84
2023-01-19T20:17:15.110Z,99433.84
2023-01-19T20:19:41.724Z,99432.59
2023-01-19T20:22:08.260Z,99443.84
2023-01-19T20:24:37.156Z,99439.63
2023-01-19T20:27:03.857Z,99447.75
2023-01-19T20:29:30.680Z,99442.28
2023-01-19T20:31:57.645Z,99436.34
2023-01-19T20:34:28.161Z,99446.31
2023-01-19T20:36:55.102Z,99445.03
2023-01-19T20:39:23.290Z,99446.22
2023-01-19T20:41:51.432Z,99451.56
2023-01-19T20:44:24.225Z,99455.22
2023-01-19T20:46:51.542Z,99454.50
2023-01-19T20:49:18.447Z,99451.44
2023-01-19T20:51:46.924Z,99456.94
2023-01-19T20:54:16.265Z,99455.38
2023-01-19T20:56:43.240Z,99456.34
2023-01-19T20:59:11.544Z,99460.94
2023-01-19T21:01:39.391Z,99460.22
2023-01-19T21:04:06.182Z,99461.59
2023-01-19T21:06:32.880Z,99457.41
2023-01-19T21:08:59.560Z,99464.94
2023-01-19T21:11:26.461Z,99471.69
2023-01-19T21:13:56.038Z,99466.09
2023-01-19T21:16:24.948Z,99468.25
2023-01-19T21:18:51.624Z,99479.44
2023-01-19T21:21:29.883Z,99483.63
2023-01-19T21:23:58.931Z,99482.38
2023-01-19T21:26:25.731Z,99485.00
2023-01-19T21:28:52.425Z,99481.69
2023-01-19T21:31:20.897Z,99487.88
2023-01-19T21:33:49.149Z,99491.91
2023-01-19T21:36:15.750Z,99491.78
2023-01-19T21:38:42.392Z,99486.38
2023-01-19T21:41:12.580Z,99484.50
2023-01-19T21:43:41.846Z,99488.03
2023-01-19T21:46:16.849Z,99495.25
2023-01-19T21:48:43.532Z,99486.34
2023-01-19T21:51:10.331Z,99495.91
2023-01-19T21:53:37.384Z,99498.16
2023-01-19T21:56:07.594Z,99496.81
2023-01-19T21:58:34.256Z,99501.78
2023-01-19T22:01:02.546Z,99502.72
2023-01-19T22:03:29.745Z,99505.41
2023-01-19T22:05:56.684Z,99507.78
2023-01-19T22:08:24.086Z,99504.03
2023-01-19T22:10:50.663Z,99511.19
2023-01-19T22:13:17.244Z,99507.00
2023-01-19T22:15:43.878Z,99509.94
2023-01-19T22:18:10.444Z,99508.81
2023-01-19T22:20:37.329Z,99517.66
2023-01-19T22:23:03.947Z,99514.13
2023-01-19T22:25:32.709Z,99514.53
2023-01-19T22:27:59.400Z,99516.63
2023-01-19T22:30:26.141Z,99527.75
2023-01-19T22:32:53.303Z,99522.88
2023-01-19T22:35:21.213Z,99524.22
2023-01-19T22:37:47.782Z,99518.91
2023-01-19T22:40:14.342Z,99524.91
2023-01-19T22:42:44.371Z,99523.75
2023-01-19T22:45:11.487Z,99530.88
2023-01-19T22:47:38.247Z,99534.88
2023-01-19T22:50:05.203Z,99524.34
2023-01-19T22:52:31.724Z,99529.06
2023-01-19T22:54:58.366Z,99532.06
2023-01-19T22:57:24.976Z,99528.41
2023-01-19T22:59:51.549Z,99536.84
2023-01-19T23:02:20.629Z,99530.84
2023-01-19T23:04:47.386Z,99530.41
2023-01-19T23:07:13.933Z,99519.84
2023-01-19T23:09:40.487Z,99528.66
2023-01-19T23:12:07.052Z,99530.78
2023-01-19T23:14:33.687Z,99528.84
2023-01-19T23:17:00.266Z,99534.09
2023-01-19T23:19:26.866Z,99531.25
2023-01-19T23:21:53.510Z,99532.03
2023-01-19T23:24:20.211Z,99532.78
2023-01-19T23:26:49.255Z,99530.66
2023-01-19T23:29:15.924Z,99531.38
2023-01-19T23:31:45.695Z,99525.38
2023-01-19T23:34:13.146Z,99530.53
2023-01-19T23:36:41.003Z,99525.34
2023-01-19T23:39:18.290Z,99526.03
2023-01-19T23:41:45.015Z,99519.94
2023-01-19T23:44:11.657Z,99525.19
2023-01-19T23:46:38.658Z,99519.19
2023-01-19T23:49:05.431Z,99522.59
2023-01-19T23:51:33.493Z,99520.97
2023-01-19T23:54:01.039Z,99525.44
2023-01-19T23:56:33.447Z,99525.06
2023-01-19T23:59:06.386Z,99519.97
